sensor_id;sensor_type;location;lat;lon;timestamp;P1;durP1;ratioP1;P2;durP2;ratioP2
19343;SDS011;9808;52.402;16.678;2023-09-30T00:01:58;20.00;;;7.53;;
19343;SDS011;9808;52.402;16.678;2023-09-30T00:04:26;12.02;;;7.13;;
19343;SDS011;9808;52.402;16.678;2023-09-30T00:06:54;11.80;;;7.00;;
19343;SDS011;9808;52.402;16.678;2023-09-30T00:09:21;12.98;;;7.20;;
19343;SDS011;9808;52.402;16.678;2023-09-30T00:11:48;15.98;;;7.22;;
19343;SDS011;9808;52.402;16.678;2023-09-30T00:14:16;11.38;;;7.22;;
19343;SDS011;9808;52.402;16.678;2023-09-30T00:16:43;11.25;;;6.65;;
19343;SDS011;9808;52.402;16.678;2023-09-30T00:19:11;11.90;;;7.70;;
19343;SDS011;9808;52.402;16.678;2023-09-30T00:21:39;12.15;;;7.05;;
19343;SDS011;9808;52.402;16.678;2023-09-30T00:24:07;15.68;;;7.57;;
19343;SDS011;9808;52.402;16.678;2023-09-30T00:26:34;16.17;;;7.03;;
19343;SDS011;9808;52.402;16.678;2023-09-30T00:29:02;12.23;;;6.80;;
19343;SDS011;9808;52.402;16.678;2023-09-30T00:31:32;12.23;;;7.18;;
19343;SDS011;9808;52.402;16.678;2023-09-30T00:33:59;13.75;;;6.80;;
19343;SDS011;9808;52.402;16.678;2023-09-30T00:36:26;15.02;;;7.30;;
19343;SDS011;9808;52.402;16.678;2023-09-30T00:38:54;11.45;;;6.95;;
19343;SDS011;9808;52.402;16.678;2023-09-30T00:41:22;11.75;;;6.65;;
19343;SDS011;9808;52.402;16.678;2023-09-30T00:43:49;16.92;;;6.10;;
19343;SDS011;9808;52.402;16.678;2023-09-30T00:48:50;12.00;;;6.88;;
19343;SDS011;9808;52.402;16.678;2023-09-30T00:51:17;12.20;;;6.55;;
19343;SDS011;9808;52.402;16.678;2023-09-30T00:53:44;11.35;;;6.65;;
19343;SDS011;9808;52.402;16.678;2023-09-30T00:56:12;13.45;;;6.85;;
19343;SDS011;9808;52.402;16.678;2023-09-30T00:58:39;11.50;;;6.55;;
19343;SDS011;9808;52.402;16.678;2023-09-30T01:01:07;16.75;;;6.30;;
19343;SDS011;9808;52.402;16.678;2023-09-30T01:03:36;11.27;;;6.18;;
19343;SDS011;9808;52.402;16.678;2023-09-30T01:06:04;12.43;;;6.45;;
19343;SDS011;9808;52.402;16.678;2023-09-30T01:08:32;12.90;;;6.57;;
19343;SDS011;9808;52.402;16.678;2023-09-30T01:11:00;12.75;;;6.22;;
19343;SDS011;9808;52.402;16.678;2023-09-30T01:13:31;15.07;;;6.50;;
19343;SDS011;9808;52.402;16.678;2023-09-30T01:18:32;9.32;;;6.25;;
19343;SDS011;9808;52.402;16.678;2023-09-30T01:21:00;10.98;;;6.00;;
19343;SDS011;9808;52.402;16.678;2023-09-30T01:23:30;10.98;;;6.05;;
19343;SDS011;9808;52.402;16.678;2023-09-30T01:26:01;11.82;;;6.05;;
19343;SDS011;9808;52.402;16.678;2023-09-30T01:28:29;11.50;;;6.32;;
19343;SDS011;9808;52.402;16.678;2023-09-30T01:30:57;11.55;;;6.10;;
19343;SDS011;9808;52.402;16.678;2023-09-30T01:33:25;10.15;;;5.78;;
19343;SDS011;9808;52.402;16.678;2023-09-30T01:35:52;14.48;;;6.68;;
19343;SDS011;9808;52.402;16.678;2023-09-30T01:38:20;15.18;;;5.90;;
19343;SDS011;9808;52.402;16.678;2023-09-30T01:40:47;10.20;;;6.35;;
19343;SDS011;9808;52.402;16.678;2023-09-30T01:43:14;12.32;;;6.25;;
19343;SDS011;9808;52.402;16.678;2023-09-30T01:45:42;9.93;;;6.13;;
19343;SDS011;9808;52.402;16.678;2023-09-30T01:48:10;13.30;;;6.63;;
19343;SDS011;9808;52.402;16.678;2023-09-30T01:50:38;13.10;;;7.35;;
19343;SDS011;9808;52.402;16.678;2023-09-30T01:53:06;11.38;;;6.47;;
19343;SDS011;9808;52.402;16.678;2023-09-30T01:55:33;10.52;;;6.55;;
19343;SDS011;9808;52.402;16.678;2023-09-30T01:58:01;9.73;;;6.38;;
19343;SDS011;9808;52.402;16.678;2023-09-30T02:00:29;11.77;;;6.65;;
19343;SDS011;9808;52.402;16.678;2023-09-30T02:02:56;13.48;;;6.70;;
19343;SDS011;9808;52.402;16.678;2023-09-30T02:05:24;14.98;;;7.68;;
19343;SDS011;9808;52.402;16.678;2023-09-30T02:07:52;12.50;;;6.80;;
19343;SDS011;9808;52.402;16.678;2023-09-30T02:10:19;13.73;;;8.00;;
19343;SDS011;9808;52.402;16.678;2023-09-30T02:12:46;12.90;;;7.63;;
19343;SDS011;9808;52.402;16.678;2023-09-30T02:15:14;12.77;;;8.60;;
19343;SDS011;9808;52.402;16.678;2023-09-30T02:17:42;16.08;;;8.45;;
19343;SDS011;9808;52.402;16.678;2023-09-30T02:20:12;14.30;;;9.05;;
19343;SDS011;9808;52.402;16.678;2023-09-30T02:22:42;13.63;;;8.70;;
19343;SDS011;9808;52.402;16.678;2023-09-30T02:25:11;12.50;;;8.98;;
19343;SDS011;9808;52.402;16.678;2023-09-30T02:27:39;15.18;;;10.10;;
19343;SDS011;9808;52.402;16.678;2023-09-30T02:30:08;17.50;;;9.48;;
19343;SDS011;9808;52.402;16.678;2023-09-30T02:32:39;15.85;;;9.55;;
19343;SDS011;9808;52.402;16.678;2023-09-30T02:35:08;12.27;;;8.77;;
19343;SDS011;9808;52.402;16.678;2023-09-30T02:37:37;14.20;;;9.43;;
19343;SDS011;9808;52.402;16.678;2023-09-30T02:40:05;14.52;;;9.48;;
19343;SDS011;9808;52.402;16.678;2023-09-30T02:42:41;16.88;;;9.57;;
19343;SDS011;9808;52.402;16.678;2023-09-30T02:45:09;15.43;;;9.68;;
19343;SDS011;9808;52.402;16.678;2023-09-30T02:47:37;13.23;;;9.15;;
19343;SDS011;9808;52.402;16.678;2023-09-30T02:50:06;13.02;;;9.50;;
19343;SDS011;9808;52.402;16.678;2023-09-30T02:52:42;21.70;;;9.65;;
19343;SDS011;9808;52.402;16.678;2023-09-30T02:55:10;13.73;;;9.10;;
19343;SDS011;9808;52.402;16.678;2023-09-30T02:57:38;14.20;;;8.85;;
19343;SDS011;9808;52.402;16.678;2023-09-30T03:00:06;14.98;;;8.93;;
19343;SDS011;9808;52.402;16.678;2023-09-30T03:02:47;14.52;;;8.63;;
19343;SDS011;9808;52.402;16.678;2023-09-30T03:05:15;13.95;;;8.30;;
19343;SDS011;9808;52.402;16.678;2023-09-30T03:07:42;16.27;;;8.98;;
19343;SDS011;9808;52.402;16.678;2023-09-30T03:10:09;11.90;;;7.63;;
19343;SDS011;9808;52.402;16.678;2023-09-30T03:12:37;11.57;;;7.85;;
19343;SDS011;9808;52.402;16.678;2023-09-30T03:15:05;17.63;;;8.55;;
19343;SDS011;9808;52.402;16.678;2023-09-30T03:17:33;12.90;;;8.07;;
19343;SDS011;9808;52.402;16.678;2023-09-30T03:20:00;11.75;;;7.80;;
19343;SDS011;9808;52.402;16.678;2023-09-30T03:22:28;12.57;;;7.45;;
19343;SDS011;9808;52.402;16.678;2023-09-30T03:24:55;12.95;;;7.50;;
19343;SDS011;9808;52.402;16.678;2023-09-30T03:27:23;14.75;;;6.82;;
19343;SDS011;9808;52.402;16.678;2023-09-30T03:29:51;14.65;;;7.10;;
19343;SDS011;9808;52.402;16.678;2023-09-30T03:32:18;13.93;;;6.40;;
19343;SDS011;9808;52.402;16.678;2023-09-30T03:34:46;13.80;;;6.38;;
19343;SDS011;9808;52.402;16.678;2023-09-30T03:37:14;13.68;;;6.22;;
19343;SDS011;9808;52.402;16.678;2023-09-30T03:39:41;14.20;;;5.88;;
19343;SDS011;9808;52.402;16.678;2023-09-30T03:42:08;10.13;;;4.63;;
19343;SDS011;9808;52.402;16.678;2023-09-30T03:44:37;9.48;;;4.57;;
19343;SDS011;9808;52.402;16.678;2023-09-30T03:47:05;12.48;;;4.85;;
19343;SDS011;9808;52.402;16.678;2023-09-30T03:49:33;10.90;;;4.95;;
19343;SDS011;9808;52.402;16.678;2023-09-30T03:52:00;12.10;;;4.22;;
19343;SDS011;9808;52.402;16.678;2023-09-30T03:54:30;8.20;;;3.80;;
19343;SDS011;9808;52.402;16.678;2023-09-30T03:56:57;7.72;;;3.47;;
19343;SDS011;9808;52.402;16.678;2023-09-30T03:59:26;7.07;;;2.60;;
19343;SDS011;9808;52.402;16.678;2023-09-30T04:01:54;6.07;;;2.53;;
19343;SDS011;9808;52.402;16.678;2023-09-30T04:04:21;7.15;;;2.88;;
19343;SDS011;9808;52.402;16.678;2023-09-30T04:06:48;5.78;;;2.38;;
19343;SDS011;9808;52.402;16.678;2023-09-30T04:09:17;6.32;;;1.88;;
19343;SDS011;9808;52.402;16.678;2023-09-30T04:11:45;2.72;;;1.48;;
19343;SDS011;9808;52.402;16.678;2023-09-30T04:14:12;5.13;;;1.77;;
19343;SDS011;9808;52.402;16.678;2023-09-30T04:16:40;4.72;;;1.65;;
19343;SDS011;9808;52.402;16.678;2023-09-30T04:19:07;7.82;;;2.10;;
19343;SDS011;9808;52.402;16.678;2023-09-30T04:21:36;4.68;;;1.60;;
19343;SDS011;9808;52.402;16.678;2023-09-30T04:24:05;7.10;;;2.05;;
19343;SDS011;9808;52.402;16.678;2023-09-30T04:26:33;6.53;;;1.50;;
19343;SDS011;9808;52.402;16.678;2023-09-30T04:29:01;5.95;;;1.63;;
19343;SDS011;9808;52.402;16.678;2023-09-30T04:31:28;8.30;;;1.35;;
19343;SDS011;9808;52.402;16.678;2023-09-30T04:33:56;4.72;;;1.70;;
19343;SDS011;9808;52.402;16.678;2023-09-30T04:36:26;4.53;;;1.52;;
19343;SDS011;9808;52.402;16.678;2023-09-30T04:38:53;9.55;;;1.83;;
19343;SDS011;9808;52.402;16.678;2023-09-30T04:41:21;5.97;;;2.00;;
19343;SDS011;9808;52.402;16.678;2023-09-30T04:43:48;6.22;;;2.00;;
19343;SDS011;9808;52.402;16.678;2023-09-30T04:46:16;4.50;;;1.80;;
19343;SDS011;9808;52.402;16.678;2023-09-30T04:48:46;7.93;;;2.75;;
19343;SDS011;9808;52.402;16.678;2023-09-30T04:51:15;9.68;;;2.63;;
19343;SDS011;9808;52.402;16.678;2023-09-30T04:53:45;6.45;;;2.15;;
19343;SDS011;9808;52.402;16.678;2023-09-30T04:56:13;7.13;;;2.40;;
19343;SDS011;9808;52.402;16.678;2023-09-30T04:58:40;11.68;;;2.60;;
19343;SDS011;9808;52.402;16.678;2023-09-30T05:01:08;9.57;;;2.42;;
19343;SDS011;9808;52.402;16.678;2023-09-30T05:03:35;9.55;;;2.80;;
19343;SDS011;9808;52.402;16.678;2023-09-30T05:06:03;9.98;;;2.30;;
19343;SDS011;9808;52.402;16.678;2023-09-30T05:08:32;8.25;;;2.38;;
19343;SDS011;9808;52.402;16.678;2023-09-30T05:10:59;12.43;;;2.60;;
19343;SDS011;9808;52.402;16.678;2023-09-30T05:13:26;7.70;;;1.98;;
19343;SDS011;9808;52.402;16.678;2023-09-30T05:15:54;6.35;;;2.47;;
19343;SDS011;9808;52.402;16.678;2023-09-30T05:18:21;9.40;;;2.78;;
19343;SDS011;9808;52.402;16.678;2023-09-30T05:20:50;7.25;;;2.33;;
19343;SDS011;9808;52.402;16.678;2023-09-30T05:23:18;10.10;;;2.50;;
19343;SDS011;9808;52.402;16.678;2023-09-30T05:25:45;9.27;;;2.30;;
19343;SDS011;9808;52.402;16.678;2023-09-30T05:28:12;10.35;;;2.92;;
19343;SDS011;9808;52.402;16.678;2023-09-30T05:30:40;14.07;;;2.72;;
19343;SDS011;9808;52.402;16.678;2023-09-30T05:33:07;10.68;;;2.78;;
19343;SDS011;9808;52.402;16.678;2023-09-30T05:35:40;10.82;;;2.42;;
19343;SDS011;9808;52.402;16.678;2023-09-30T05:38:07;13.63;;;2.83;;
19343;SDS011;9808;52.402;16.678;2023-09-30T05:40:35;12.35;;;2.65;;
19343;SDS011;9808;52.402;16.678;2023-09-30T05:43:02;8.43;;;2.75;;
19343;SDS011;9808;52.402;16.678;2023-09-30T05:45:32;8.82;;;2.38;;
19343;SDS011;9808;52.402;16.678;2023-09-30T05:48:02;12.07;;;2.38;;
19343;SDS011;9808;52.402;16.678;2023-09-30T05:50:32;11.77;;;2.47;;
19343;SDS011;9808;52.402;16.678;2023-09-30T05:53:00;9.30;;;2.38;;
19343;SDS011;9808;52.402;16.678;2023-09-30T05:55:28;10.52;;;2.35;;
19343;SDS011;9808;52.402;16.678;2023-09-30T05:57:55;13.98;;;3.63;;
19343;SDS011;9808;52.402;16.678;2023-09-30T06:00:22;15.18;;;3.33;;
19343;SDS011;9808;52.402;16.678;2023-09-30T06:02:50;11.07;;;2.85;;
19343;SDS011;9808;52.402;16.678;2023-09-30T06:05:18;9.50;;;2.83;;
19343;SDS011;9808;52.402;16.678;2023-09-30T06:07:46;10.88;;;2.53;;
19343;SDS011;9808;52.402;16.678;2023-09-30T06:10:13;12.18;;;2.83;;
19343;SDS011;9808;52.402;16.678;2023-09-30T06:12:52;11.93;;;2.80;;
19343;SDS011;9808;52.402;16.678;2023-09-30T06:15:24;14.23;;;3.28;;
19343;SDS011;9808;52.402;16.678;2023-09-30T06:17:55;14.32;;;3.47;;
19343;SDS011;9808;52.402;16.678;2023-09-30T06:20:24;10.80;;;2.58;;
19343;SDS011;9808;52.402;16.678;2023-09-30T06:22:57;10.98;;;2.95;;
19343;SDS011;9808;52.402;16.678;2023-09-30T06:25:24;12.80;;;2.90;;
19343;SDS011;9808;52.402;16.678;2023-09-30T06:27:51;11.40;;;3.03;;
19343;SDS011;9808;52.402;16.678;2023-09-30T06:30:19;11.40;;;2.88;;
19343;SDS011;9808;52.402;16.678;2023-09-30T06:32:47;22.33;;;3.38;;
19343;SDS011;9808;52.402;16.678;2023-09-30T06:35:15;14.32;;;3.35;;
19343;SDS011;9808;52.402;16.678;2023-09-30T06:37:46;14.27;;;3.40;;
19343;SDS011;9808;52.402;16.678;2023-09-30T06:40:13;14.70;;;3.22;;
19343;SDS011;9808;52.402;16.678;2023-09-30T06:42:41;9.98;;;3.28;;
19343;SDS011;9808;52.402;16.678;2023-09-30T06:45:09;13.02;;;3.33;;
19343;SDS011;9808;52.402;16.678;2023-09-30T06:47:37;14.13;;;3.25;;
19343;SDS011;9808;52.402;16.678;2023-09-30T06:50:08;15.40;;;3.47;;
19343;SDS011;9808;52.402;16.678;2023-09-30T06:52:38;14.35;;;3.97;;
19343;SDS011;9808;52.402;16.678;2023-09-30T06:55:06;15.43;;;2.92;;
19343;SDS011;9808;52.402;16.678;2023-09-30T06:57:33;12.82;;;3.42;;
19343;SDS011;9808;52.402;16.678;2023-09-30T07:00:01;10.95;;;2.90;;
19343;SDS011;9808;52.402;16.678;2023-09-30T07:02:30;13.23;;;2.83;;
19343;SDS011;9808;52.402;16.678;2023-09-30T07:04:58;15.73;;;3.17;;
19343;SDS011;9808;52.402;16.678;2023-09-30T07:07:25;13.60;;;2.80;;
19343;SDS011;9808;52.402;16.678;2023-09-30T07:09:52;15.02;;;3.10;;
19343;SDS011;9808;52.402;16.678;2023-09-30T07:12:19;16.20;;;3.28;;
19343;SDS011;9808;52.402;16.678;2023-09-30T07:14:47;17.17;;;3.42;;
19343;SDS011;9808;52.402;16.678;2023-09-30T07:17:14;11.90;;;2.70;;
19343;SDS011;9808;52.402;16.678;2023-09-30T07:19:41;14.18;;;3.63;;
19343;SDS011;9808;52.402;16.678;2023-09-30T07:22:11;15.50;;;3.25;;
19343;SDS011;9808;52.402;16.678;2023-09-30T07:24:39;20.65;;;3.25;;
19343;SDS011;9808;52.402;16.678;2023-09-30T07:27:07;18.77;;;3.95;;
19343;SDS011;9808;52.402;16.678;2023-09-30T07:29:53;18.15;;;3.33;;
19343;SDS011;9808;52.402;16.678;2023-09-30T07:32:24;17.02;;;3.70;;
19343;SDS011;9808;52.402;16.678;2023-09-30T07:34:51;13.98;;;3.42;;
19343;SDS011;9808;52.402;16.678;2023-09-30T07:37:18;12.13;;;3.17;;
19343;SDS011;9808;52.402;16.678;2023-09-30T07:39:47;16.75;;;3.47;;
19343;SDS011;9808;52.402;16.678;2023-09-30T07:42:14;16.40;;;3.80;;
19343;SDS011;9808;52.402;16.678;2023-09-30T07:44:43;12.07;;;3.13;;
19343;SDS011;9808;52.402;16.678;2023-09-30T07:47:10;15.68;;;3.65;;
19343;SDS011;9808;52.402;16.678;2023-09-30T07:49:38;16.90;;;3.50;;
19343;SDS011;9808;52.402;16.678;2023-09-30T07:52:06;11.63;;;2.83;;
19343;SDS011;9808;52.402;16.678;2023-09-30T07:54:33;12.25;;;3.45;;
19343;SDS011;9808;52.402;16.678;2023-09-30T07:57:00;14.40;;;3.22;;
19343;SDS011;9808;52.402;16.678;2023-09-30T07:59:27;17.13;;;3.53;;
19343;SDS011;9808;52.402;16.678;2023-09-30T08:01:55;13.13;;;3.83;;
19343;SDS011;9808;52.402;16.678;2023-09-30T08:04:23;11.93;;;3.10;;
19343;SDS011;9808;52.402;16.678;2023-09-30T08:06:51;16.17;;;3.15;;
19343;SDS011;9808;52.402;16.678;2023-09-30T08:09:19;11.38;;;3.38;;
19343;SDS011;9808;52.402;16.678;2023-09-30T08:11:48;14.40;;;3.25;;
19343;SDS011;9808;52.402;16.678;2023-09-30T08:14:16;15.77;;;2.75;;
19343;SDS011;9808;52.402;16.678;2023-09-30T08:16:44;24.27;;;4.00;;
19343;SDS011;9808;52.402;16.678;2023-09-30T08:19:11;15.60;;;3.08;;
19343;SDS011;9808;52.402;16.678;2023-09-30T08:21:38;13.73;;;3.20;;
19343;SDS011;9808;52.402;16.678;2023-09-30T08:24:06;16.30;;;3.40;;
19343;SDS011;9808;52.402;16.678;2023-09-30T08:26:34;11.07;;;2.92;;
19343;SDS011;9808;52.402;16.678;2023-09-30T08:29:02;14.50;;;3.33;;
19343;SDS011;9808;52.402;16.678;2023-09-30T08:31:29;16.73;;;3.50;;
19343;SDS011;9808;52.402;16.678;2023-09-30T08:33:57;15.52;;;3.05;;
19343;SDS011;9808;52.402;16.678;2023-09-30T08:36:24;16.33;;;3.92;;
19343;SDS011;9808;52.402;16.678;2023-09-30T08:38:51;14.60;;;3.45;;
19343;SDS011;9808;52.402;16.678;2023-09-30T08:41:32;16.02;;;3.88;;
19343;SDS011;9808;52.402;16.678;2023-09-30T08:44:00;15.07;;;4.00;;
19343;SDS011;9808;52.402;16.678;2023-09-30T08:46:32;15.40;;;3.20;;
19343;SDS011;9808;52.402;16.678;2023-09-30T08:49:01;13.57;;;3.47;;
19343;SDS011;9808;52.402;16.678;2023-09-30T08:51:31;10.93;;;3.13;;
19343;SDS011;9808;52.402;16.678;2023-09-30T08:53:59;11.88;;;2.92;;
19343;SDS011;9808;52.402;16.678;2023-09-30T08:56:31;13.63;;;3.63;;
19343;SDS011;9808;52.402;16.678;2023-09-30T08:59:02;12.25;;;3.22;;
19343;SDS011;9808;52.402;16.678;2023-09-30T09:01:29;11.93;;;3.20;;
19343;SDS011;9808;52.402;16.678;2023-09-30T09:03:57;9.65;;;3.13;;
19343;SDS011;9808;52.402;16.678;2023-09-30T09:06:25;15.82;;;3.70;;
19343;SDS011;9808;52.402;16.678;2023-09-30T09:08:53;11.10;;;2.92;;
19343;SDS011;9808;52.402;16.678;2023-09-30T09:11:21;14.95;;;3.03;;
19343;SDS011;9808;52.402;16.678;2023-09-30T09:13:53;15.18;;;3.58;;
19343;SDS011;9808;52.402;16.678;2023-09-30T09:16:23;14.13;;;3.17;;
19343;SDS011;9808;52.402;16.678;2023-09-30T09:18:50;11.32;;;2.90;;
19343;SDS011;9808;52.402;16.678;2023-09-30T09:21:18;20.73;;;3.30;;
19343;SDS011;9808;52.402;16.678;2023-09-30T09:23:48;12.45;;;3.03;;
19343;SDS011;9808;52.402;16.678;2023-09-30T09:26:28;15.20;;;3.30;;
19343;SDS011;9808;52.402;16.678;2023-09-30T09:29:00;15.48;;;2.95;;
19343;SDS011;9808;52.402;16.678;2023-09-30T09:31:28;14.30;;;2.33;;
19343;SDS011;9808;52.402;16.678;2023-09-30T09:33:57;9.20;;;2.60;;
19343;SDS011;9808;52.402;16.678;2023-09-30T09:39:28;16.15;;;2.72;;
19343;SDS011;9808;52.402;16.678;2023-09-30T09:41:59;15.77;;;2.67;;
19343;SDS011;9808;52.402;16.678;2023-09-30T09:44:28;13.13;;;3.30;;
19343;SDS011;9808;52.402;16.678;2023-09-30T09:46:56;11.77;;;3.05;;
19343;SDS011;9808;52.402;16.678;2023-09-30T09:49:24;11.13;;;2.50;;
19343;SDS011;9808;52.402;16.678;2023-09-30T09:51:52;10.00;;;2.50;;
19343;SDS011;9808;52.402;16.678;2023-09-30T09:54:21;12.50;;;2.28;;
19343;SDS011;9808;52.402;16.678;2023-09-30T09:56:49;10.65;;;2.13;;
19343;SDS011;9808;52.402;16.678;2023-09-30T09:59:20;13.38;;;2.78;;
19343;SDS011;9808;52.402;16.678;2023-09-30T10:01:49;12.93;;;2.67;;
19343;SDS011;9808;52.402;16.678;2023-09-30T10:04:17;16.15;;;2.78;;
19343;SDS011;9808;52.402;16.678;2023-09-30T10:06:44;8.82;;;2.00;;
19343;SDS011;9808;52.402;16.678;2023-09-30T10:09:15;11.35;;;2.75;;
19343;SDS011;9808;52.402;16.678;2023-09-30T10:11:43;14.75;;;2.50;;
19343;SDS011;9808;52.402;16.678;2023-09-30T10:14:29;6.43;;;2.08;;
19343;SDS011;9808;52.402;16.678;2023-09-30T10:16:59;7.60;;;2.38;;
19343;SDS011;9808;52.402;16.678;2023-09-30T10:19:28;10.32;;;2.28;;
19343;SDS011;9808;52.402;16.678;2023-09-30T10:24:42;7.70;;;2.10;;
19343;SDS011;9808;52.402;16.678;2023-09-30T10:35:15;9.57;;;2.08;;
19343;SDS011;9808;52.402;16.678;2023-09-30T10:37:43;15.45;;;2.67;;
19343;SDS011;9808;52.402;16.678;2023-09-30T10:40:29;14.05;;;2.67;;
19343;SDS011;9808;52.402;16.678;2023-09-30T10:42:57;12.98;;;2.00;;
19343;SDS011;9808;52.402;16.678;2023-09-30T10:50:52;15.43;;;2.55;;
19343;SDS011;9808;52.402;16.678;2023-09-30T10:53:25;9.38;;;2.40;;
19343;SDS011;9808;52.402;16.678;2023-09-30T10:55:54;8.98;;;1.85;;
19343;SDS011;9808;52.402;16.678;2023-09-30T10:58:21;6.72;;;1.98;;
19343;SDS011;9808;52.402;16.678;2023-09-30T11:00:52;9.60;;;2.38;;
19343;SDS011;9808;52.402;16.678;2023-09-30T11:03:21;14.13;;;2.40;;
19343;SDS011;9808;52.402;16.678;2023-09-30T11:05:50;8.57;;;1.92;;
19343;SDS011;9808;52.402;16.678;2023-09-30T11:08:28;12.23;;;2.65;;
19343;SDS011;9808;52.402;16.678;2023-09-30T11:10:58;12.23;;;2.03;;
19343;SDS011;9808;52.402;16.678;2023-09-30T11:13:33;20.23;;;2.30;;
19343;SDS011;9808;52.402;16.678;2023-09-30T11:16:05;13.23;;;2.70;;
19343;SDS011;9808;52.402;16.678;2023-09-30T11:18:32;16.90;;;2.35;;
19343;SDS011;9808;52.402;16.678;2023-09-30T11:21:03;11.32;;;2.15;;
19343;SDS011;9808;52.402;16.678;2023-09-30T11:23:31;10.57;;;2.40;;
19343;SDS011;9808;52.402;16.678;2023-09-30T11:25:59;10.93;;;2.25;;
19343;SDS011;9808;52.402;16.678;2023-09-30T11:28:34;14.73;;;2.47;;
19343;SDS011;9808;52.402;16.678;2023-09-30T11:31:02;7.57;;;2.00;;
19343;SDS011;9808;52.402;16.678;2023-09-30T11:33:31;17.15;;;2.30;;
19343;SDS011;9808;52.402;16.678;2023-09-30T11:38:28;9.55;;;1.92;;
19343;SDS011;9808;52.402;16.678;2023-09-30T11:41:02;9.32;;;2.35;;
19343;SDS011;9808;52.402;16.678;2023-09-30T11:43:31;12.00;;;1.90;;
19343;SDS011;9808;52.402;16.678;2023-09-30T11:46:08;12.18;;;2.25;;
19343;SDS011;9808;52.402;16.678;2023-09-30T11:48:38;10.07;;;2.00;;
19343;SDS011;9808;52.402;16.678;2023-09-30T11:51:06;12.63;;;2.45;;
19343;SDS011;9808;52.402;16.678;2023-09-30T11:53:34;13.93;;;2.55;;
19343;SDS011;9808;52.402;16.678;2023-09-30T11:56:02;11.52;;;2.17;;
19343;SDS011;9808;52.402;16.678;2023-09-30T11:58:29;17.65;;;2.25;;
19343;SDS011;9808;52.402;16.678;2023-09-30T12:00:58;11.43;;;2.47;;
19343;SDS011;9808;52.402;16.678;2023-09-30T12:03:26;10.82;;;1.65;;
19343;SDS011;9808;52.402;16.678;2023-09-30T12:05:54;9.45;;;1.83;;
19343;SDS011;9808;52.402;16.678;2023-09-30T12:08:24;9.43;;;1.80;;
19343;SDS011;9808;52.402;16.678;2023-09-30T12:10:51;11.85;;;2.47;;
19343;SDS011;9808;52.402;16.678;2023-09-30T12:13:19;8.07;;;1.52;;
19343;SDS011;9808;52.402;16.678;2023-09-30T12:15:46;8.00;;;1.65;;
19343;SDS011;9808;52.402;16.678;2023-09-30T12:18:14;11.10;;;2.17;;
19343;SDS011;9808;52.402;16.678;2023-09-30T12:20:43;10.55;;;1.88;;
19343;SDS011;9808;52.402;16.678;2023-09-30T12:23:10;11.23;;;2.20;;
19343;SDS011;9808;52.402;16.678;2023-09-30T12:25:37;11.02;;;2.00;;
19343;SDS011;9808;52.402;16.678;2023-09-30T12:28:05;11.80;;;2.00;;
19343;SDS011;9808;52.402;16.678;2023-09-30T12:30:32;8.63;;;2.50;;
19343;SDS011;9808;52.402;16.678;2023-09-30T12:32:59;10.38;;;1.80;;
19343;SDS011;9808;52.402;16.678;2023-09-30T12:35:27;9.70;;;2.10;;
19343;SDS011;9808;52.402;16.678;2023-09-30T12:37:54;10.95;;;2.10;;
19343;SDS011;9808;52.402;16.678;2023-09-30T12:40:22;9.00;;;2.00;;
19343;SDS011;9808;52.402;16.678;2023-09-30T12:42:50;9.20;;;2.00;;
19343;SDS011;9808;52.402;16.678;2023-09-30T12:45:17;9.18;;;2.10;;
19343;SDS011;9808;52.402;16.678;2023-09-30T12:47:44;9.45;;;2.22;;
19343;SDS011;9808;52.402;16.678;2023-09-30T12:50:13;11.13;;;2.05;;
19343;SDS011;9808;52.402;16.678;2023-09-30T12:52:41;12.35;;;2.28;;
19343;SDS011;9808;52.402;16.678;2023-09-30T12:55:08;7.72;;;1.90;;
19343;SDS011;9808;52.402;16.678;2023-09-30T12:57:36;9.57;;;2.10;;
19343;SDS011;9808;52.402;16.678;2023-09-30T13:00:03;15.00;;;2.10;;
19343;SDS011;9808;52.402;16.678;2023-09-30T13:02:35;13.38;;;2.25;;
19343;SDS011;9808;52.402;16.678;2023-09-30T13:05:02;8.80;;;1.80;;
19343;SDS011;9808;52.402;16.678;2023-09-30T13:07:31;7.00;;;1.48;;
19343;SDS011;9808;52.402;16.678;2023-09-30T13:09:59;10.52;;;2.00;;
19343;SDS011;9808;52.402;16.678;2023-09-30T13:12:26;7.38;;;1.50;;
19343;SDS011;9808;52.402;16.678;2023-09-30T13:14:54;9.00;;;1.95;;
19343;SDS011;9808;52.402;16.678;2023-09-30T13:17:22;9.20;;;1.55;;
19343;SDS011;9808;52.402;16.678;2023-09-30T13:19:50;8.90;;;1.67;;
19343;SDS011;9808;52.402;16.678;2023-09-30T13:22:17;9.68;;;2.15;;
19343;SDS011;9808;52.402;16.678;2023-09-30T13:24:45;11.00;;;2.20;;
19343;SDS011;9808;52.402;16.678;2023-09-30T13:27:12;10.75;;;1.73;;
19343;SDS011;9808;52.402;16.678;2023-09-30T13:29:44;9.65;;;1.75;;
19343;SDS011;9808;52.402;16.678;2023-09-30T13:32:12;10.55;;;2.38;;
19343;SDS011;9808;52.402;16.678;2023-09-30T13:34:40;10.75;;;2.03;;
19343;SDS011;9808;52.402;16.678;2023-09-30T13:37:07;12.13;;;2.00;;
19343;SDS011;9808;52.402;16.678;2023-09-30T13:39:35;10.18;;;1.88;;
19343;SDS011;9808;52.402;16.678;2023-09-30T13:42:02;7.32;;;1.98;;
19343;SDS011;9808;52.402;16.678;2023-09-30T13:44:29;9.35;;;2.05;;
19343;SDS011;9808;52.402;16.678;2023-09-30T13:46:56;10.80;;;1.75;;
19343;SDS011;9808;52.402;16.678;2023-09-30T13:49:24;11.05;;;2.30;;
19343;SDS011;9808;52.402;16.678;2023-09-30T13:51:51;12.52;;;2.50;;
19343;SDS011;9808;52.402;16.678;2023-09-30T13:54:19;7.25;;;1.85;;
19343;SDS011;9808;52.402;16.678;2023-09-30T13:56:46;10.60;;;1.98;;
19343;SDS011;9808;52.402;16.678;2023-09-30T13:59:14;8.52;;;2.10;;
19343;SDS011;9808;52.402;16.678;2023-09-30T14:01:41;13.50;;;2.55;;
19343;SDS011;9808;52.402;16.678;2023-09-30T14:04:09;9.73;;;2.15;;
19343;SDS011;9808;52.402;16.678;2023-09-30T14:06:36;9.38;;;2.38;;
19343;SDS011;9808;52.402;16.678;2023-09-30T14:09:04;16.58;;;2.20;;
19343;SDS011;9808;52.402;16.678;2023-09-30T14:11:31;9.98;;;2.05;;
19343;SDS011;9808;52.402;16.678;2023-09-30T14:13:58;12.57;;;2.08;;
19343;SDS011;9808;52.402;16.678;2023-09-30T14:16:27;8.30;;;2.13;;
19343;SDS011;9808;52.402;16.678;2023-09-30T14:18:54;11.82;;;2.35;;
19343;SDS011;9808;52.402;16.678;2023-09-30T14:21:22;11.52;;;2.15;;
19343;SDS011;9808;52.402;16.678;2023-09-30T14:23:49;8.50;;;2.20;;
19343;SDS011;9808;52.402;16.678;2023-09-30T14:26:16;9.15;;;2.10;;
19343;SDS011;9808;52.402;16.678;2023-09-30T14:28:43;13.40;;;2.40;;
19343;SDS011;9808;52.402;16.678;2023-09-30T14:31:11;10.13;;;2.40;;
19343;SDS011;9808;52.402;16.678;2023-09-30T14:33:38;9.98;;;2.22;;
19343;SDS011;9808;52.402;16.678;2023-09-30T14:36:06;18.75;;;2.63;;
19343;SDS011;9808;52.402;16.678;2023-09-30T14:38:33;11.63;;;2.58;;
19343;SDS011;9808;52.402;16.678;2023-09-30T14:41:00;7.05;;;2.00;;
19343;SDS011;9808;52.402;16.678;2023-09-30T14:43:28;10.95;;;2.45;;
19343;SDS011;9808;52.402;16.678;2023-09-30T14:45:55;11.52;;;2.60;;
19343;SDS011;9808;52.402;16.678;2023-09-30T14:48:23;14.48;;;2.70;;
19343;SDS011;9808;52.402;16.678;2023-09-30T14:50:50;10.52;;;1.67;;
19343;SDS011;9808;52.402;16.678;2023-09-30T14:53:18;11.80;;;2.50;;
19343;SDS011;9808;52.402;16.678;2023-09-30T14:55:46;8.43;;;2.13;;
19343;SDS011;9808;52.402;16.678;2023-09-30T14:58:13;6.85;;;1.85;;
19343;SDS011;9808;52.402;16.678;2023-09-30T15:00:40;8.63;;;1.83;;
19343;SDS011;9808;52.402;16.678;2023-09-30T15:03:08;14.00;;;2.35;;
19343;SDS011;9808;52.402;16.678;2023-09-30T15:05:37;13.88;;;2.40;;
19343;SDS011;9808;52.402;16.678;2023-09-30T15:08:04;7.65;;;1.88;;
19343;SDS011;9808;52.402;16.678;2023-09-30T15:10:34;10.93;;;2.42;;
19343;SDS011;9808;52.402;16.678;2023-09-30T15:13:02;8.00;;;1.45;;